sensor_id;sensor_type;location;lat;lon;timestamp;P1;durP1;ratioP1;P2;durP2;ratioP2
69419;SDS011;71621;52.030;113.516;2024-01-25T00:00:48;21.05;;;7.60;;
69419;SDS011;71621;52.030;113.516;2024-01-25T00:03:52;14.70;;;5.40;;
69419;SDS011;71621;52.030;113.516;2024-01-25T00:06:57;23.38;;;6.88;;
69419;SDS011;71621;52.030;113.516;2024-01-25T00:10:01;26.05;;;7.88;;
69419;SDS011;71621;52.030;113.516;2024-01-25T00:13:05;17.90;;;5.95;;
69419;SDS011;71621;52.030;113.516;2024-01-25T00:16:10;18.57;;;6.03;;
69419;SDS011;71621;52.030;113.516;2024-01-25T00:19:14;30.33;;;7.25;;
69419;SDS011;71621;52.030;113.516;2024-01-25T00:22:18;18.77;;;5.72;;
69419;SDS011;71621;52.030;113.516;2024-01-25T00:25:22;14.93;;;4.73;;
69419;SDS011;71621;52.030;113.516;2024-01-25T00:28:26;15.35;;;5.00;;
69419;SDS011;71621;52.030;113.516;2024-01-25T00:31:31;26.77;;;7.82;;
69419;SDS011;71621;52.030;113.516;2024-01-25T00:34:36;21.25;;;6.00;;
69419;SDS011;71621;52.030;113.516;2024-01-25T00:37:40;23.20;;;6.35;;
69419;SDS011;71621;52.030;113.516;2024-01-25T00:40:45;28.25;;;7.25;;
69419;SDS011;71621;52.030;113.516;2024-01-25T00:43:49;33.83;;;8.25;;
69419;SDS011;71621;52.030;113.516;2024-01-25T00:46:53;33.67;;;9.53;;
69419;SDS011;71621;52.030;113.516;2024-01-25T00:49:57;33.83;;;11.38;;
69419;SDS011;71621;52.030;113.516;2024-01-25T00:53:01;24.10;;;8.27;;
69419;SDS011;71621;52.030;113.516;2024-01-25T00:56:05;33.30;;;7.13;;
69419;SDS011;71621;52.030;113.516;2024-01-25T00:59:10;27.60;;;9.02;;
69419;SDS011;71621;52.030;113.516;2024-01-25T01:02:14;40.60;;;12.10;;
69419;SDS011;71621;52.030;113.516;2024-01-25T01:05:18;36.60;;;10.18;;
69419;SDS011;71621;52.030;113.516;2024-01-25T01:08:22;44.67;;;11.45;;
69419;SDS011;71621;52.030;113.516;2024-01-25T01:11:27;33.92;;;11.60;;
69419;SDS011;71621;52.030;113.516;2024-01-25T01:14:30;39.78;;;12.23;;
69419;SDS011;71621;52.030;113.516;2024-01-25T01:17:34;33.90;;;10.53;;
69419;SDS011;71621;52.030;113.516;2024-01-25T01:20:38;39.05;;;11.60;;
69419;SDS011;71621;52.030;113.516;2024-01-25T01:23:42;34.30;;;10.20;;
69419;SDS011;71621;52.030;113.516;2024-01-25T01:26:45;28.60;;;10.20;;
69419;SDS011;71621;52.030;113.516;2024-01-25T01:29:49;35.75;;;11.32;;
69419;SDS011;71621;52.030;113.516;2024-01-25T01:32:53;28.88;;;8.57;;
69419;SDS011;71621;52.030;113.516;2024-01-25T01:35:56;38.08;;;10.52;;
69419;SDS011;71621;52.030;113.516;2024-01-25T01:39:00;30.08;;;10.40;;
69419;SDS011;71621;52.030;113.516;2024-01-25T01:42:04;26.08;;;9.65;;
69419;SDS011;71621;52.030;113.516;2024-01-25T01:45:09;32.13;;;11.05;;
69419;SDS011;71621;52.030;113.516;2024-01-25T01:48:16;64.33;;;21.33;;
69419;SDS011;71621;52.030;113.516;2024-01-25T01:51:20;28.73;;;9.10;;
69419;SDS011;71621;52.030;113.516;2024-01-25T01:54:24;29.52;;;10.88;;
69419;SDS011;71621;52.030;113.516;2024-01-25T01:57:30;47.07;;;15.33;;
69419;SDS011;71621;52.030;113.516;2024-01-25T02:00:34;35.80;;;10.27;;
69419;SDS011;71621;52.030;113.516;2024-01-25T02:03:39;19.25;;;6.32;;
69419;SDS011;71621;52.030;113.516;2024-01-25T02:06:43;72.70;;;22.08;;
69419;SDS011;71621;52.030;113.516;2024-01-25T02:09:49;169.63;;;39.45;;
69419;SDS011;71621;52.030;113.516;2024-01-25T02:12:52;46.20;;;11.95;;
69419;SDS011;71621;52.030;113.516;2024-01-25T02:15:56;28.15;;;8.45;;
69419;SDS011;71621;52.030;113.516;2024-01-25T02:19:00;36.13;;;9.30;;
69419;SDS011;71621;52.030;113.516;2024-01-25T02:22:04;32.15;;;8.75;;
69419;SDS011;71621;52.030;113.516;2024-01-25T02:25:08;36.83;;;9.10;;
69419;SDS011;71621;52.030;113.516;2024-01-25T02:28:12;26.60;;;9.23;;
69419;SDS011;71621;52.030;113.516;2024-01-25T02:31:16;19.15;;;6.97;;
69419;SDS011;71621;52.030;113.516;2024-01-25T02:34:20;24.15;;;8.10;;
69419;SDS011;71621;52.030;113.516;2024-01-25T02:37:24;19.77;;;6.55;;
69419;SDS011;71621;52.030;113.516;2024-01-25T02:40:28;26.83;;;9.23;;
69419;SDS011;71621;52.030;113.516;2024-01-25T02:43:31;27.90;;;7.55;;
69419;SDS011;71621;52.030;113.516;2024-01-25T02:46:36;23.60;;;7.18;;
69419;SDS011;71621;52.030;113.516;2024-01-25T02:49:40;41.37;;;14.80;;
69419;SDS011;71621;52.030;113.516;2024-01-25T02:52:45;25.88;;;10.32;;
69419;SDS011;71621;52.030;113.516;2024-01-25T02:55:49;53.90;;;16.08;;
69419;SDS011;71621;52.030;113.516;2024-01-25T02:58:53;40.40;;;11.77;;
69419;SDS011;71621;52.030;113.516;2024-01-25T03:01:57;35.35;;;12.68;;
69419;SDS011;71621;52.030;113.516;2024-01-25T03:05:01;36.15;;;14.05;;
69419;SDS011;71621;52.030;113.516;2024-01-25T03:08:05;37.50;;;12.77;;
69419;SDS011;71621;52.030;113.516;2024-01-25T03:11:09;48.35;;;16.17;;
69419;SDS011;71621;52.030;113.516;2024-01-25T03:14:13;45.05;;;18.33;;
69419;SDS011;71621;52.030;113.516;2024-01-25T03:17:16;50.80;;;16.15;;
69419;SDS011;71621;52.030;113.516;2024-01-25T03:20:20;54.17;;;18.80;;
69419;SDS011;71621;52.030;113.516;2024-01-25T03:23:24;64.13;;;17.33;;
69419;SDS011;71621;52.030;113.516;2024-01-25T03:26:28;65.10;;;20.40;;
69419;SDS011;71621;52.030;113.516;2024-01-25T03:29:32;65.15;;;20.48;;
69419;SDS011;71621;52.030;113.516;2024-01-25T03:32:35;60.72;;;19.05;;
69419;SDS011;71621;52.030;113.516;2024-01-25T03:35:39;52.97;;;19.70;;
69419;SDS011;71621;52.030;113.516;2024-01-25T03:38:43;54.38;;;15.95;;
69419;SDS011;71621;52.030;113.516;2024-01-25T03:41:46;42.20;;;15.23;;
69419;SDS011;71621;52.030;113.516;2024-01-25T03:44:51;35.80;;;13.05;;
69419;SDS011;71621;52.030;113.516;2024-01-25T03:47:54;42.80;;;13.43;;
69419;SDS011;71621;52.030;113.516;2024-01-25T03:50:59;40.13;;;13.37;;
69419;SDS011;71621;52.030;113.516;2024-01-25T03:54:02;38.92;;;11.90;;
69419;SDS011;71621;52.030;113.516;2024-01-25T03:57:06;42.50;;;13.85;;
69419;SDS011;71621;52.030;113.516;2024-01-25T04:00:10;44.80;;;15.10;;
69419;SDS011;71621;52.030;113.516;2024-01-25T04:03:14;43.15;;;12.48;;
69419;SDS011;71621;52.030;113.516;2024-01-25T04:06:18;40.90;;;12.63;;
69419;SDS011;71621;52.030;113.516;2024-01-25T04:09:22;46.72;;;14.23;;
69419;SDS011;71621;52.030;113.516;2024-01-25T04:12:26;36.67;;;11.50;;
69419;SDS011;71621;52.030;113.516;2024-01-25T04:15:30;25.33;;;9.07;;
69419;SDS011;71621;52.030;113.516;2024-01-25T04:18:34;26.80;;;8.00;;
69419;SDS011;71621;52.030;113.516;2024-01-25T04:21:38;26.52;;;7.78;;
69419;SDS011;71621;52.030;113.516;2024-01-25T04:24:41;31.15;;;8.43;;
69419;SDS011;71621;52.030;113.516;2024-01-25T04:27:46;27.15;;;9.52;;
69419;SDS011;71621;52.030;113.516;2024-01-25T04:30:51;26.58;;;9.15;;
69419;SDS011;71621;52.030;113.516;2024-01-25T04:33:56;43.73;;;15.53;;
69419;SDS011;71621;52.030;113.516;2024-01-25T04:37:00;51.35;;;14.60;;
69419;SDS011;71621;52.030;113.516;2024-01-25T04:40:04;42.03;;;13.73;;
69419;SDS011;71621;52.030;113.516;2024-01-25T04:43:09;32.90;;;10.40;;
69419;SDS011;71621;52.030;113.516;2024-01-25T04:46:14;37.10;;;11.98;;
69419;SDS011;71621;52.030;113.516;2024-01-25T04:49:18;27.00;;;8.77;;
69419;SDS011;71621;52.030;113.516;2024-01-25T04:52:22;37.45;;;10.82;;
69419;SDS011;71621;52.030;113.516;2024-01-25T04:55:25;34.90;;;10.87;;
69419;SDS011;71621;52.030;113.516;2024-01-25T04:58:29;37.58;;;9.95;;
69419;SDS011;71621;52.030;113.516;2024-01-25T05:01:33;27.40;;;9.20;;
69419;SDS011;71621;52.030;113.516;2024-01-25T05:04:37;23.77;;;7.05;;
69419;SDS011;71621;52.030;113.516;2024-01-25T05:07:42;32.05;;;8.23;;
69419;SDS011;71621;52.030;113.516;2024-01-25T05:10:46;22.45;;;7.70;;
69419;SDS011;71621;52.030;113.516;2024-01-25T05:13:50;25.20;;;5.97;;
69419;SDS011;71621;52.030;113.516;2024-01-25T05:16:54;18.40;;;4.60;;
69419;SDS011;71621;52.030;113.516;2024-01-25T05:19:57;25.27;;;6.20;;
69419;SDS011;71621;52.030;113.516;2024-01-25T05:23:03;13.00;;;4.88;;
69419;SDS011;71621;52.030;113.516;2024-01-25T05:26:07;13.35;;;4.03;;
69419;SDS011;71621;52.030;113.516;2024-01-25T05:29:11;15.37;;;4.37;;
69419;SDS011;71621;52.030;113.516;2024-01-25T05:32:15;14.15;;;4.13;;
69419;SDS011;71621;52.030;113.516;2024-01-25T05:35:19;26.10;;;6.38;;
69419;SDS011;71621;52.030;113.516;2024-01-25T05:38:23;24.35;;;5.82;;
69419;SDS011;71621;52.030;113.516;2024-01-25T05:41:27;34.97;;;8.07;;
69419;SDS011;71621;52.030;113.516;2024-01-25T05:44:31;27.30;;;8.50;;
69419;SDS011;71621;52.030;113.516;2024-01-25T05:47:35;31.95;;;8.90;;
69419;SDS011;71621;52.030;113.516;2024-01-25T05:50:38;24.53;;;7.70;;
69419;SDS011;71621;52.030;113.516;2024-01-25T05:53:42;29.15;;;7.78;;
69419;SDS011;71621;52.030;113.516;2024-01-25T05:56:46;29.75;;;8.57;;
69419;SDS011;71621;52.030;113.516;2024-01-25T05:59:50;29.70;;;8.05;;
69419;SDS011;71621;52.030;113.516;2024-01-25T06:02:54;16.27;;;5.63;;
69419;SDS011;71621;52.030;113.516;2024-01-25T06:05:58;17.67;;;5.05;;
69419;SDS011;71621;52.030;113.516;2024-01-25T06:09:02;19.20;;;4.63;;
69419;SDS011;71621;52.030;113.516;2024-01-25T06:12:14;28.08;;;13.20;;
69419;SDS011;71621;52.030;113.516;2024-01-25T06:15:18;22.97;;;9.97;;
69419;SDS011;71621;52.030;113.516;2024-01-25T06:18:22;15.68;;;3.88;;
69419;SDS011;71621;52.030;113.516;2024-01-25T06:21:25;19.08;;;7.97;;
69419;SDS011;71621;52.030;113.516;2024-01-25T06:24:29;19.65;;;4.32;;
69419;SDS011;71621;52.030;113.516;2024-01-25T06:27:33;14.57;;;4.50;;
69419;SDS011;71621;52.030;113.516;2024-01-25T06:30:37;30.85;;;8.20;;
69419;SDS011;71621;52.030;113.516;2024-01-25T06:33:41;12.57;;;3.33;;
69419;SDS011;71621;52.030;113.516;2024-01-25T06:36:50;14.70;;;4.00;;
69419;SDS011;71621;52.030;113.516;2024-01-25T06:39:53;16.53;;;4.83;;
69419;SDS011;71621;52.030;113.516;2024-01-25T06:42:57;15.82;;;4.40;;
69419;SDS011;71621;52.030;113.516;2024-01-25T06:46:01;11.48;;;2.75;;
69419;SDS011;71621;52.030;113.516;2024-01-25T06:49:06;17.15;;;5.90;;
69419;SDS011;71621;52.030;113.516;2024-01-25T06:52:10;17.67;;;6.83;;
69419;SDS011;71621;52.030;113.516;2024-01-25T06:55:14;18.73;;;4.32;;
69419;SDS011;71621;52.030;113.516;2024-01-25T06:58:19;17.60;;;6.00;;
69419;SDS011;71621;52.030;113.516;2024-01-25T07:01:23;37.47;;;8.90;;
69419;SDS011;71621;52.030;113.516;2024-01-25T07:04:28;15.43;;;3.17;;
69419;SDS011;71621;52.030;113.516;2024-01-25T07:07:32;12.57;;;4.13;;
69419;SDS011;71621;52.030;113.516;2024-01-25T07:10:36;34.65;;;10.38;;
69419;SDS011;71621;52.030;113.516;2024-01-25T07:13:40;14.27;;;4.72;;
69419;SDS011;71621;52.030;113.516;2024-01-25T07:16:44;14.60;;;4.47;;
69419;SDS011;71621;52.030;113.516;2024-01-25T07:19:48;18.38;;;4.85;;
69419;SDS011;71621;52.030;113.516;2024-01-25T07:22:52;17.17;;;5.15;;
69419;SDS011;71621;52.030;113.516;2024-01-25T07:25:56;16.42;;;4.68;;
69419;SDS011;71621;52.030;113.516;2024-01-25T07:28:59;13.50;;;4.60;;
69419;SDS011;71621;52.030;113.516;2024-01-25T07:32:03;20.58;;;4.50;;
69419;SDS011;71621;52.030;113.516;2024-01-25T07:35:07;16.38;;;4.63;;
69419;SDS011;71621;52.030;113.516;2024-01-25T07:38:13;15.80;;;5.10;;
69419;SDS011;71621;52.030;113.516;2024-01-25T07:41:17;20.70;;;6.00;;
69419;SDS011;71621;52.030;113.516;2024-01-25T07:44:21;15.77;;;5.18;;
69419;SDS011;71621;52.030;113.516;2024-01-25T07:47:24;22.63;;;6.75;;
69419;SDS011;71621;52.030;113.516;2024-01-25T07:50:29;18.27;;;6.15;;
69419;SDS011;71621;52.030;113.516;2024-01-25T07:53:32;23.40;;;6.35;;
69419;SDS011;71621;52.030;113.516;2024-01-25T07:56:36;31.73;;;10.20;;
69419;SDS011;71621;52.030;113.516;2024-01-25T07:59:40;26.55;;;6.45;;
69419;SDS011;71621;52.030;113.516;2024-01-25T08:02:44;22.80;;;6.38;;
69419;SDS011;71621;52.030;113.516;2024-01-25T08:05:48;37.97;;;10.13;;
69419;SDS011;71621;52.030;113.516;2024-01-25T08:08:52;40.78;;;9.88;;
69419;SDS011;71621;52.030;113.516;2024-01-25T08:11:56;16.02;;;5.25;;
69419;SDS011;71621;52.030;113.516;2024-01-25T08:15:00;22.88;;;6.97;;
69419;SDS011;71621;52.030;113.516;2024-01-25T08:18:03;28.98;;;6.60;;
69419;SDS011;71621;52.030;113.516;2024-01-25T08:21:07;31.75;;;9.05;;
69419;SDS011;71621;52.030;113.516;2024-01-25T08:24:11;33.53;;;9.63;;
69419;SDS011;71621;52.030;113.516;2024-01-25T08:27:15;19.60;;;5.90;;
69419;SDS011;71621;52.030;113.516;2024-01-25T08:30:19;19.00;;;6.37;;
69419;SDS011;71621;52.030;113.516;2024-01-25T08:33:23;23.38;;;6.65;;
69419;SDS011;71621;52.030;113.516;2024-01-25T08:36:28;31.17;;;10.52;;
69419;SDS011;71621;52.030;113.516;2024-01-25T08:39:31;50.78;;;14.65;;
69419;SDS011;71621;52.030;113.516;2024-01-25T08:42:35;41.35;;;10.93;;
69419;SDS011;71621;52.030;113.516;2024-01-25T08:45:39;47.30;;;14.48;;
69419;SDS011;71621;52.030;113.516;2024-01-25T08:48:43;54.15;;;16.73;;
69419;SDS011;71621;52.030;113.516;2024-01-25T08:51:47;51.78;;;16.25;;
69419;SDS011;71621;52.030;113.516;2024-01-25T08:54:51;64.83;;;19.00;;
69419;SDS011;71621;52.030;113.516;2024-01-25T08:57:55;75.82;;;24.42;;
69419;SDS011;71621;52.030;113.516;2024-01-25T09:00:59;80.05;;;26.77;;
69419;SDS011;71621;52.030;113.516;2024-01-25T09:04:03;87.80;;;30.38;;
69419;SDS011;71621;52.030;113.516;2024-01-25T09:07:07;104.10;;;30.80;;
69419;SDS011;71621;52.030;113.516;2024-01-25T09:10:11;81.50;;;25.92;;
69419;SDS011;71621;52.030;113.516;2024-01-25T09:13:15;88.72;;;28.10;;
69419;SDS011;71621;52.030;113.516;2024-01-25T09:16:19;102.63;;;34.60;;
69419;SDS011;71621;52.030;113.516;2024-01-25T09:19:22;103.80;;;33.63;;
69419;SDS011;71621;52.030;113.516;2024-01-25T09:22:26;137.43;;;42.95;;
69419;SDS011;71621;52.030;113.516;2024-01-25T09:25:30;86.20;;;27.00;;
69419;SDS011;71621;52.030;113.516;2024-01-25T09:28:34;106.30;;;32.97;;
69419;SDS011;71621;52.030;113.516;2024-01-25T09:31:38;147.85;;;41.58;;
69419;SDS011;71621;52.030;113.516;2024-01-25T09:34:42;190.07;;;54.15;;
69419;SDS011;71621;52.030;113.516;2024-01-25T09:37:46;191.73;;;53.65;;
69419;SDS011;71621;52.030;113.516;2024-01-25T09:40:51;147.23;;;44.80;;
69419;SDS011;71621;52.030;113.516;2024-01-25T09:43:55;122.80;;;38.00;;
69419;SDS011;71621;52.030;113.516;2024-01-25T09:47:00;113.20;;;37.00;;
69419;SDS011;71621;52.030;113.516;2024-01-25T09:50:06;119.03;;;37.57;;
69419;SDS011;71621;52.030;113.516;2024-01-25T09:53:12;131.15;;;38.78;;
69419;SDS011;71621;52.030;113.516;2024-01-25T09:56:20;187.40;;;53.80;;
69419;SDS011;71621;52.030;113.516;2024-01-25T09:59:26;220.10;;;61.38;;
69419;SDS011;71621;52.030;113.516;2024-01-25T10:02:30;236.03;;;74.30;;
69419;SDS011;71621;52.030;113.516;2024-01-25T10:05:34;190.98;;;66.85;;
69419;SDS011;71621;52.030;113.516;2024-01-25T10:08:38;206.35;;;69.43;;
69419;SDS011;71621;52.030;113.516;2024-01-25T10:11:42;210.63;;;70.05;;
69419;SDS011;71621;52.030;113.516;2024-01-25T10:14:55;205.68;;;75.63;;
69419;SDS011;71621;52.030;113.516;2024-01-25T10:17:59;299.85;;;101.68;;
69419;SDS011;71621;52.030;113.516;2024-01-25T10:21:23;305.33;;;106.20;;
69419;SDS011;71621;52.030;113.516;2024-01-25T10:24:27;333.83;;;117.10;;
69419;SDS011;71621;52.030;113.516;2024-01-25T10:27:31;301.23;;;106.95;;
69419;SDS011;71621;52.030;113.516;2024-01-25T10:30:36;246.73;;;82.05;;
69419;SDS011;71621;52.030;113.516;2024-01-25T10:33:40;193.03;;;61.07;;
69419;SDS011;71621;52.030;113.516;2024-01-25T10:36:44;176.27;;;59.95;;
69419;SDS011;71621;52.030;113.516;2024-01-25T10:39:53;173.73;;;60.13;;
69419;SDS011;71621;52.030;113.516;2024-01-25T10:43:00;147.95;;;56.60;;
69419;SDS011;71621;52.030;113.516;2024-01-25T10:46:04;127.10;;;49.95;;
69419;SDS011;71621;52.030;113.516;2024-01-25T10:49:09;123.93;;;48.22;;
69419;SDS011;71621;52.030;113.516;2024-01-25T10:52:13;103.72;;;44.15;;
69419;SDS011;71621;52.030;113.516;2024-01-25T10:55:18;101.13;;;39.77;;
69419;SDS011;71621;52.030;113.516;2024-01-25T10:58:21;91.65;;;35.47;;
69419;SDS011;71621;52.030;113.516;2024-01-25T11:01:27;132.93;;;55.78;;
69419;SDS011;71621;52.030;113.516;2024-01-25T11:04:31;117.13;;;53.37;;
69419;SDS011;71621;52.030;113.516;2024-01-25T11:07:43;117.95;;;51.38;;
69419;SDS011;71621;52.030;113.516;2024-01-25T11:10:50;161.82;;;67.57;;
69419;SDS011;71621;52.030;113.516;2024-01-25T11:13:55;147.27;;;61.53;;
69419;SDS011;71621;52.030;113.516;2024-01-25T11:17:14;175.80;;;76.15;;
69419;SDS011;71621;52.030;113.516;2024-01-25T11:20:20;159.63;;;70.50;;
69419;SDS011;71621;52.030;113.516;2024-01-25T11:23:31;208.27;;;89.18;;
69419;SDS011;71621;52.030;113.516;2024-01-25T11:26:35;160.43;;;71.27;;
69419;SDS011;71621;52.030;113.516;2024-01-25T11:29:39;158.40;;;62.58;;
69419;SDS011;71621;52.030;113.516;2024-01-25T11:32:48;166.35;;;61.80;;
69419;SDS011;71621;52.030;113.516;2024-01-25T11:35:54;172.43;;;66.37;;
69419;SDS011;71621;52.030;113.516;2024-01-25T11:38:58;160.88;;;63.88;;
69419;SDS011;71621;52.030;113.516;2024-01-25T11:42:02;155.60;;;57.88;;
69419;SDS011;71621;52.030;113.516;2024-01-25T11:45:07;136.35;;;52.05;;
69419;SDS011;71621;52.030;113.516;2024-01-25T11:48:14;150.30;;;54.88;;
69419;SDS011;71621;52.030;113.516;2024-01-25T11:51:17;119.40;;;47.35;;
69419;SDS011;71621;52.030;113.516;2024-01-25T11:54:21;109.97;;;44.10;;
69419;SDS011;71621;52.030;113.516;2024-01-25T11:57:25;129.33;;;45.93;;
69419;SDS011;71621;52.030;113.516;2024-01-25T12:00:29;129.90;;;45.88;;
69419;SDS011;71621;52.030;113.516;2024-01-25T12:03:34;148.10;;;50.83;;
69419;SDS011;71621;52.030;113.516;2024-01-25T12:06:41;168.13;;;56.47;;
69419;SDS011;71621;52.030;113.516;2024-01-25T12:09:45;228.50;;;71.88;;
69419;SDS011;71621;52.030;113.516;2024-01-25T12:12:59;187.52;;;62.25;;
69419;SDS011;71621;52.030;113.516;2024-01-25T12:16:03;210.23;;;65.75;;
69419;SDS011;71621;52.030;113.516;2024-01-25T12:19:07;206.50;;;66.45;;
69419;SDS011;71621;52.030;113.516;2024-01-25T12:22:11;196.07;;;65.20;;
69419;SDS011;71621;52.030;113.516;2024-01-25T12:25:22;191.15;;;61.85;;
69419;SDS011;71621;52.030;113.516;2024-01-25T12:28:27;201.57;;;65.07;;
69419;SDS011;71621;52.030;113.516;2024-01-25T12:31:32;184.77;;;57.08;;
69419;SDS011;71621;52.030;113.516;2024-01-25T12:34:35;203.35;;;63.15;;
69419;SDS011;71621;52.030;113.516;2024-01-25T12:37:41;177.13;;;59.73;;
69419;SDS011;71621;52.030;113.516;2024-01-25T12:40:46;209.07;;;62.97;;
69419;SDS011;71621;52.030;113.516;2024-01-25T12:43:52;203.93;;;64.85;;
69419;SDS011;71621;52.030;113.516;2024-01-25T12:46:56;268.42;;;90.15;;
69419;SDS011;71621;52.030;113.516;2024-01-25T12:50:00;283.02;;;96.43;;
69419;SDS011;71621;52.030;113.516;2024-01-25T12:53:05;250.52;;;87.57;;
69419;SDS011;71621;52.030;113.516;2024-01-25T12:56:10;288.13;;;97.82;;
69419;SDS011;71621;52.030;113.516;2024-01-25T12:59:13;257.83;;;91.80;;
69419;SDS011;71621;52.030;113.516;2024-01-25T13:02:18;258.65;;;85.30;;
69419;SDS011;71621;52.030;113.516;2024-01-25T13:05:21;275.70;;;89.07;;
69419;SDS011;71621;52.030;113.516;2024-01-25T13:08:26;277.57;;;95.40;;
69419;SDS011;71621;52.030;113.516;2024-01-25T13:11:29;400.48;;;141.07;;
69419;SDS011;71621;52.030;113.516;2024-01-25T13:14:34;293.35;;;94.88;;
69419;SDS011;71621;52.030;113.516;2024-01-25T13:17:37;288.13;;;90.53;;
69419;SDS011;71621;52.030;113.516;2024-01-25T13:20:41;289.45;;;87.43;;
69419;SDS011;71621;52.030;113.516;2024-01-25T13:23:45;293.40;;;92.22;;
69419;SDS011;71621;52.030;113.516;2024-01-25T13:26:48;303.50;;;91.50;;
69419;SDS011;71621;52.030;113.516;2024-01-25T13:29:52;291.87;;;85.67;;
69419;SDS011;71621;52.030;113.516;2024-01-25T13:32:57;317.15;;;93.88;;
69419;SDS011;71621;52.030;113.516;2024-01-25T13:36:02;330.33;;;93.45;;
69419;SDS011;71621;52.030;113.516;2024-01-25T13:39:11;298.20;;;94.47;;
69419;SDS011;71621;52.030;113.516;2024-01-25T13:42:15;275.98;;;85.57;;
69419;SDS011;71621;52.030;113.516;2024-01-25T13:45:19;280.92;;;84.97;;
69419;SDS011;71621;52.030;113.516;2024-01-25T13:48:22;237.73;;;70.82;;
69419;SDS011;71621;52.030;113.516;2024-01-25T13:51:27;224.45;;;66.43;;
69419;SDS011;71621;52.030;113.516;2024-01-25T13:54:30;219.23;;;63.30;;
69419;SDS011;71621;52.030;113.516;2024-01-25T13:57:34;173.57;;;49.78;;
69419;SDS011;71621;52.030;113.516;2024-01-25T14:00:37;143.47;;;47.33;;
69419;SDS011;71621;52.030;113.516;2024-01-25T14:03:43;147.73;;;43.40;;
69419;SDS011;71621;52.030;113.516;2024-01-25T14:06:47;129.45;;;38.22;;
69419;SDS011;71621;52.030;113.516;2024-01-25T14:09:51;126.63;;;43.37;;
69419;SDS011;71621;52.030;113.516;2024-01-25T14:12:56;114.40;;;36.92;;
69419;SDS011;71621;52.030;113.516;2024-01-25T14:16:01;129.10;;;39.33;;
69419;SDS011;71621;52.030;113.516;2024-01-25T14:19:04;118.90;;;35.78;;
69419;SDS011;71621;52.030;113.516;2024-01-25T14:22:08;112.38;;;36.55;;
69419;SDS011;71621;52.030;113.516;2024-01-25T14:25:30;109.05;;;34.08;;
69419;SDS011;71621;52.030;113.516;2024-01-25T14:28:34;103.90;;;32.42;;
69419;SDS011;71621;52.030;113.516;2024-01-25T14:31:38;105.37;;;33.97;;
69419;SDS011;71621;52.030;113.516;2024-01-25T14:34:42;113.25;;;35.22;;
69419;SDS011;71621;52.030;113.516;2024-01-25T14:37:45;102.82;;;32.75;;
69419;SDS011;71621;52.030;113.516;2024-01-25T14:40:49;111.97;;;33.93;;
69419;SDS011;71621;52.030;113.516;2024-01-25T14:44:01;93.88;;;31.50;;
69419;SDS011;71621;52.030;113.516;2024-01-25T14:47:05;92.10;;;30.55;;
69419;SDS011;71621;52.030;113.516;2024-01-25T14:50:08;93.00;;;29.88;;
69419;SDS011;71621;52.030;113.516;2024-01-25T14:53:13;95.18;;;28.02;;
69419;SDS011;71621;52.030;113.516;2024-01-25T14:56:17;99.50;;;27.80;;
69419;SDS011;71621;52.030;113.516;2024-01-25T14:59:20;133.80;;;42.35;;
69419;SDS011;71621;52.030;113.516;2024-01-25T15:02:24;134.30;;;45.07;;
69419;SDS011;71621;52.030;113.516;2024-01-25T15:05:28;138.02;;;46.30;;
69419;SDS011;71621;52.030;113.516;2024-01-25T15:08:31;155.30;;;46.22;;
69419;SDS011;71621;52.030;113.516;2024-01-25T15:11:35;143.63;;;45.90;;
69419;SDS011;71621;52.030;113.516;2024-01-25T15:14:39;148.30;;;47.97;;
69419;SDS011;71621;52.030;113.516;2024-01-25T15:17:43;181.77;;;55.47;;
69419;SDS011;71621;52.030;113.516;2024-01-25T15:20:47;159.90;;;52.03;;
69419;SDS011;71621;52.030;113.516;2024-01-25T15:23:52;161.50;;;51.65;;
69419;SDS011;71621;52.030;113.516;2024-01-25T15:26:55;176.05;;;54.92;;
69419;SDS011;71621;52.030;113.516;2024-01-25T15:29:59;142.02;;;50.42;;
69419;SDS011;71621;52.030;113.516;2024-01-25T15:33:03;170.13;;;53.17;;
69419;SDS011;71621;52.030;113.516;2024-01-25T15:36:08;180.95;;;55.80;;
69419;SDS011;71621;52.030;113.516;2024-01-25T15:39:12;177.30;;;57.90;;
69419;SDS011;71621;52.030;113.516;2024-01-25T15:42:17;179.57;;;56.80;;
69419;SDS011;71621;52.030;113.516;2024-01-25T15:45:20;203.07;;;56.63;;
69419;SDS011;71621;52.030;113.516;2024-01-25T15:48:25;184.55;;;60.72;;
69419;SDS011;71621;52.030;113.516;2024-01-25T15:51:29;221.82;;;71.88;;
69419;SDS011;71621;52.030;113.516;2024-01-25T15:54:33;220.82;;;73.40;;
69419;SDS011;71621;52.030;113.516;2024-01-25T15:57:37;239.13;;;71.25;;
69419;SDS011;71621;52.030;113.516;2024-01-25T16:00:41;270.45;;;78.28;;
69419;SDS011;71621;52.030;113.516;2024-01-25T16:03:44;240.40;;;77.10;;
69419;SDS011;71621;52.030;113.516;2024-01-25T16:06:48;265.83;;;76.13;;
69419;SDS011;71621;52.030;113.516;2024-01-25T16:09:52;306.83;;;92.88;;
69419;SDS011;71621;52.030;113.516;2024-01-25T16:12:56;397.13;;;120.93;;
69419;SDS011;71621;52.030;113.516;2024-01-25T16:16:00;450.73;;;140.30;;
69419;SDS011;71621;52.030;113.516;2024-01-25T16:19:04;402.10;;;118.43;;
69419;SDS011;71621;52.030;113.516;2024-01-25T16:22:08;309.45;;;94.40;;
69419;SDS011;71621;52.030;113.516;2024-01-25T16:25:11;324.20;;;96.47;;
69419;SDS011;71621;52.030;113.516;2024-01-25T16:28:15;285.65;;;87.78;;
69419;SDS011;71621;52.030;113.516;2024-01-25T16:31:20;331.90;;;100.32;;
69419;SDS011;71621;52.030;113.516;2024-01-25T16:34:24;327.73;;;95.53;;
69419;SDS011;71621;52.030;113.516;2024-01-25T16:37:28;253.50;;;77.93;;
69419;SDS011;71621;52.030;113.516;2024-01-25T16:40:32;231.40;;;64.45;;
69419;SDS011;71621;52.030;113.516;2024-01-25T16:43:36;258.20;;;75.33;;
69419;SDS011;71621;52.030;113.516;2024-01-25T16:46:40;226.50;;;65.13;;
69419;SDS011;71621;52.030;113.516;2024-01-25T16:49:43;209.52;;;59.20;;
69419;SDS011;71621;52.030;113.516;2024-01-25T16:52:48;169.57;;;48.75;;
69419;SDS011;71621;52.030;113.516;2024-01-25T16:55:52;139.50;;;42.70;;
69419;SDS011;71621;52.030;113.516;2024-01-25T16:58:57;131.95;;;43.17;;
69419;SDS011;71621;52.030;113.516;2024-01-25T17:02:02;164.48;;;46.30;;
69419;SDS011;71621;52.030;113.516;2024-01-25T17:05:06;153.17;;;46.13;;
69419;SDS011;71621;52.030;113.516;2024-01-25T17:08:10;159.88;;;43.45;;
69419;SDS011;71621;52.030;113.516;2024-01-25T17:11:13;150.43;;;43.03;;
69419;SDS011;71621;52.030;113.516;2024-01-25T17:14:19;163.53;;;47.30;;
69419;SDS011;71621;52.030;113.516;2024-01-25T17:17:23;166.68;;;50.10;;
69419;SDS011;71621;52.030;113.516;2024-01-25T17:20:28;154.75;;;45.30;;
69419;SDS011;71621;52.030;113.516;2024-01-25T17:23:33;143.98;;;43.13;;